Space Weather Message
Issued by NWS

Home | Current Version | Previous Version | Text Only | Print | Product List | Glossary On
Versions: 1 2 3 4 5 6 7 8 9 10 11 12 13 14 15 16 17 18 19 20 21 22
000
NZUS99 KLBF 281505
SUMOGA

DAILY SUMMARY AT 06:00:29 LOCAL TIME ON 14/07/28
PEAK WIND SINCE 00:00 080/08 AT 05:48
MAXIMUM TEMP SINCE 00:00 58 AT 00:51
MINIMUM TEMP SINCE 00:00 53 AT 03:07
PRECIP RATE 0.00
PRECIP THIS HOUR 0.00
PRECIP PREV HOUR 0.00
PRECIP 6 HOUR 0.00
PRECIP SINCE 00:00 0.00
t+)="4ELEV:=$ UTC:=$4DATE:=% CIG:=( VSBY:=* PRSNT WEA:=2 NOTAM:=+4PCPN:=, TEMP/DWPNT:=- WND:=. ALTM:=/ DNS ALT:=0 RMRKS:=)B=1 THUNST:(=$&13:00=$;14/07/28=  OGALLALA - SEARLE FIELD    OGALLALA, NE.=" OGA=";3278="Rt=6 t=$&13:00=$;14/07/28=  OGALLALA - SEARLE FIELD    OGALLALA, NE.=" OGA=";3278="Rt=,-t58=,1/52 (F)=,p143=+p112=-&t080=-p090=-*/08=-3=-;=.&t30.34=/*t=2(NONE                        (=(&t10=(/=(p010050560507E09101XX=%&tCLR=%3=*+t=+:=0&t=1(t=!pN00N00N00N00N00N00N00N00N00N00N00N00N00="pN00N00N00N00N00N00N00N00N00N00N00N00N00=)It=5 t=4 tMETAR KOGA 281256Z AUTO 09007KT 10SM CLR 14/11 A3034 RMK AO2=#p>0000>57E7=6 =-&t080=-p090=-*/08=-3=-;=6
NO CARRIER

NO CARRIER

NO CARRIER

NO CARRIER

NO CARRIER

NO CARRIER

NO CARRIER

NO CARRIER

NO CARRIER

NO CARRIER

NO CARRIER

NO CARRIER

NO CARRIER

NO CARRIER

NO CARRIER




USA.gov is the U.S. government's official web portal to all federal, state and local government web resources and services.